»·PEaware :: SBE250 KCEC-4S2

SBE250 :: KCEC-4S2

FLIGHT INFORMATION

Flight Status: Arrived
Operator: Unknown
More flights by this operator :: More flights under this callsign
Pilot: Anonymous 13363 (13363)
Aircraft: BOMBARDIER BD-100 CHALLENGER 300
(CL30)
More flights by this aircraft type
Origin: KCEC McNamara
United States
Destination: 4S2 Hood River
United States
More flights between these airports :: More routes between these airports
Route: EUG J143 LTJ
File this flight plan on PilotEdge
Remarks:
Altitude:
(Current/Filed)
45,000ft
Speed:
(Current/Filed)
475kts
Departed: 02-Feb-18 09:33 PM
Arrived: 02-Feb-18 10:21 PM
Distance/Time
Traveled:
258nm/0:48
Distance/Time
To Go:
Arrived

Flight Plot

Page will automatically refresh every two minutes.

Flight plan parsing failed; only flown route is shown


Map Options




Map Legend


Flown Route
Filed Route
Departure Airport
Arrival Airport
Navaid (VOR, NDB)
Fix

Horizontal Profiles

Position Reports

Time Latitude Longitude Heading Altitude Ground
Speed
02-Feb-18 21:26 41.778726 -124.235766 159 57ft 0kts
02-Feb-18 21:27 41.778726 -124.235766 159 57ft 0kts
02-Feb-18 21:28 41.778726 -124.235766 159 57ft 0kts
02-Feb-18 21:29 41.778726 -124.235766 159 57ft 0kts
02-Feb-18 21:30 41.778726 -124.235766 159 57ft 0kts
02-Feb-18 21:31 41.778726 -124.235766 159 57ft 0kts
02-Feb-18 21:32 41.778726 -124.235766 159 57ft 0kts
02-Feb-18 21:33 41.778726 -124.235766 159 57ft 0kts
02-Feb-18 21:34 41.778726 -124.235766 159 57ft 0kts
02-Feb-18 21:35 41.778484 -124.236061 230 57ft 3kts
02-Feb-18 21:36 41.777362 -124.237573 190 57ft 9kts
02-Feb-18 21:37 41.773976 -124.238921 223 57ft 16kts
02-Feb-18 21:38 41.775730 -124.239577 12 57ft 11kts
02-Feb-18 21:39 41.808149 -124.227879 13 2143ft 179kts
02-Feb-18 21:40 41.872325 -124.218590 358 6312ft 271kts
02-Feb-18 21:41 41.943548 -124.233420 344 12292ft 260kts
02-Feb-18 21:42 42.007627 -124.179103 30 16588ft 301kts
02-Feb-18 21:43 42.088461 -124.119612 17 19470ft 344kts
02-Feb-18 21:44 42.178083 -124.073505 13 22751ft 360kts
02-Feb-18 21:45 42.274757 -124.030055 12 25708ft 375kts
02-Feb-18 21:46 42.375984 -123.986516 11 28170ft 391kts
02-Feb-18 21:47 42.481213 -123.941572 12 30354ft 405kts
02-Feb-18 21:48 42.589480 -123.895308 12 32259ft 415kts
02-Feb-18 21:49 42.700320 -123.847802 12 33735ft 423kts
02-Feb-18 21:50 42.811722 -123.799825 11 35445ft 419kts
02-Feb-18 21:51 42.920814 -123.752728 10 37551ft 408kts
02-Feb-18 21:52 43.027612 -123.706533 9 39292ft 404kts
02-Feb-18 21:53 43.133803 -123.660467 10 40533ft 409kts
02-Feb-18 21:54 43.241604 -123.613451 10 41912ft 407kts
02-Feb-18 21:55 43.344107 -123.568560 10 43034ft 406kts
02-Feb-18 21:56 43.451148 -123.521507 10 44064ft 405kts
02-Feb-18 21:57 43.557889 -123.474415 10 44928ft 405kts
02-Feb-18 21:58 43.664772 -123.427124 10 45380ft 414kts
02-Feb-18 21:59 43.776582 -123.377427 11 45379ft 433kts
02-Feb-18 22:00 43.889532 -123.326975 11 45366ft 443kts
02-Feb-18 22:01 44.005614 -123.274930 11 45366ft 440kts
02-Feb-18 22:02 44.112943 -123.221009 22 45357ft 450kts
02-Feb-18 22:03 44.208827 -123.109461 35 45373ft 461kts
02-Feb-18 22:04 44.303236 -122.988491 36 44920ft 467kts
02-Feb-18 22:05 44.397255 -122.866830 36 42945ft 459kts
02-Feb-18 22:06 44.489509 -122.746796 35 40988ft 455kts
02-Feb-18 22:07 44.579327 -122.629419 34 38619ft 452kts
02-Feb-18 22:08 44.670112 -122.510367 35 35950ft 444kts
02-Feb-18 22:09 44.758554 -122.393783 35 33266ft 434kts
02-Feb-18 22:10 44.846492 -122.277386 37 30579ft 443kts
02-Feb-18 22:11 44.936337 -122.157899 37 27564ft 449kts
02-Feb-18 22:12 45.026941 -122.036820 37 24345ft 441kts
02-Feb-18 22:13 45.109067 -121.926534 37 21170ft 399kts
02-Feb-18 22:14 45.185972 -121.822978 37 18494ft 376kts
02-Feb-18 22:15 45.260198 -121.722665 37 16785ft 367kts
02-Feb-18 22:16 45.332869 -121.624032 37 15205ft 358kts
02-Feb-18 22:17 45.402542 -121.529011 37 13611ft 328kts
02-Feb-18 22:18 45.478722 -121.465795 14 13228ft 288kts
02-Feb-18 22:19 45.544930 -121.423491 14 12641ft 252kts
02-Feb-18 22:20 45.607961 -121.383122 14 10524ft 251kts
02-Feb-18 22:21 45.653575 -121.318799 70 9428ft 229kts
02-Feb-18 22:22 45.626790 -121.251903 202 7777ft 227kts
02-Feb-18 22:23 45.633550 -121.321405 298 5910ft 206kts
02-Feb-18 22:24 45.660662 -121.390544 298 4569ft 198kts
02-Feb-18 22:25 45.675573 -121.454921 284 2807ft 160kts
02-Feb-18 22:26 45.672881 -121.506683 270 914ft 111kts
02-Feb-18 22:27 45.672779 -121.540362 271 621ft 14kts
02-Feb-18 22:28 45.671931 -121.541105 88 621ft 0kts
02-Feb-18 22:29 45.671931 -121.541100 87 621ft 0kts
02-Feb-18 22:30 45.671931 -121.541100 87 621ft 0kts
02-Feb-18 22:31 45.671931 -121.541100 87 621ft 0kts
02-Feb-18 22:32 45.671931 -121.541099 87 621ft 0kts
02-Feb-18 22:33 45.671931 -121.541099 87 621ft 0kts
02-Feb-18 22:34 45.671931 -121.541099 87 621ft 0kts
02-Feb-18 22:35 45.672316 -121.541485 266 621ft 7kts
02-Feb-18 22:36 45.672786 -121.538255 89 621ft 88kts
02-Feb-18 22:37 45.695287 -121.511465 304 3043ft 215kts
02-Feb-18 22:38 45.686217 -121.610517 260 8429ft 268kts
02-Feb-18 22:39 45.673321 -121.712513 267 13355ft 271kts

Navigation Log

Ident Type
Flight plan parsing failed, navigation log unavailable